sensor_id;sensor_type;location;lat;lon;timestamp;P1;durP1;ratioP1;P2;durP2;ratioP2
53052;SDS011;38934;52.690;6.184;2023-08-20T00:00:28;10.68;;;7.90;;
53052;SDS011;38934;52.690;6.184;2023-08-20T00:03:03;13.07;;;7.70;;
53052;SDS011;38934;52.690;6.184;2023-08-20T00:05:34;13.27;;;7.75;;
53052;SDS011;38934;52.690;6.184;2023-08-20T00:08:00;13.70;;;8.80;;
53052;SDS011;38934;52.690;6.184;2023-08-20T00:10:26;11.32;;;7.47;;
53052;SDS011;38934;52.690;6.184;2023-08-20T00:12:54;12.43;;;7.53;;
53052;SDS011;38934;52.690;6.184;2023-08-20T00:15:20;12.48;;;7.72;;
53052;SDS011;38934;52.690;6.184;2023-08-20T00:17:51;12.60;;;8.18;;
53052;SDS011;38934;52.690;6.184;2023-08-20T00:20:17;10.35;;;7.60;;
53052;SDS011;38934;52.690;6.184;2023-08-20T00:22:43;11.27;;;7.55;;
53052;SDS011;38934;52.690;6.184;2023-08-20T00:25:10;10.80;;;7.90;;
53052;SDS011;38934;52.690;6.184;2023-08-20T00:27:37;10.60;;;7.90;;
53052;SDS011;38934;52.690;6.184;2023-08-20T00:30:03;12.70;;;7.93;;
53052;SDS011;38934;52.690;6.184;2023-08-20T00:32:29;9.40;;;8.05;;
53052;SDS011;38934;52.690;6.184;2023-08-20T00:34:55;11.70;;;8.70;;
53052;SDS011;38934;52.690;6.184;2023-08-20T00:37:21;13.23;;;8.48;;
53052;SDS011;38934;52.690;6.184;2023-08-20T00:39:47;11.20;;;7.85;;
53052;SDS011;38934;52.690;6.184;2023-08-20T00:42:12;10.35;;;7.88;;
53052;SDS011;38934;52.690;6.184;2023-08-20T00:44:39;13.73;;;7.65;;
53052;SDS011;38934;52.690;6.184;2023-08-20T00:47:06;13.88;;;9.13;;
53052;SDS011;38934;52.690;6.184;2023-08-20T00:49:32;9.93;;;8.13;;
53052;SDS011;38934;52.690;6.184;2023-08-20T00:51:59;13.32;;;8.73;;
53052;SDS011;38934;52.690;6.184;2023-08-20T00:54:25;12.57;;;8.75;;
53052;SDS011;38934;52.690;6.184;2023-08-20T00:56:52;11.23;;;8.02;;
53052;SDS011;38934;52.690;6.184;2023-08-20T00:59:19;9.75;;;7.80;;
53052;SDS011;38934;52.690;6.184;2023-08-20T01:01:45;12.27;;;7.85;;
53052;SDS011;38934;52.690;6.184;2023-08-20T01:04:11;11.02;;;8.25;;
53052;SDS011;38934;52.690;6.184;2023-08-20T01:06:51;12.52;;;8.25;;
53052;SDS011;38934;52.690;6.184;2023-08-20T01:09:23;11.45;;;8.75;;
53052;SDS011;38934;52.690;6.184;2023-08-20T01:12:02;10.93;;;8.20;;
53052;SDS011;38934;52.690;6.184;2023-08-20T01:14:28;9.98;;;7.60;;
53052;SDS011;38934;52.690;6.184;2023-08-20T01:16:54;14.32;;;7.90;;
53052;SDS011;38934;52.690;6.184;2023-08-20T01:19:20;13.98;;;8.57;;
53052;SDS011;38934;52.690;6.184;2023-08-20T01:29:46;12.38;;;7.63;;
53052;SDS011;38934;52.690;6.184;2023-08-20T01:32:12;10.70;;;7.80;;
53052;SDS011;38934;52.690;6.184;2023-08-20T01:34:39;11.98;;;8.50;;
53052;SDS011;38934;52.690;6.184;2023-08-20T01:37:04;12.70;;;8.20;;
53052;SDS011;38934;52.690;6.184;2023-08-20T01:39:30;11.40;;;7.97;;
53052;SDS011;38934;52.690;6.184;2023-08-20T01:41:55;10.20;;;7.15;;
53052;SDS011;38934;52.690;6.184;2023-08-20T01:44:21;11.77;;;7.50;;
53052;SDS011;38934;52.690;6.184;2023-08-20T01:46:47;11.35;;;7.90;;
53052;SDS011;38934;52.690;6.184;2023-08-20T01:49:13;12.23;;;8.05;;
53052;SDS011;38934;52.690;6.184;2023-08-20T01:51:38;10.25;;;7.93;;
53052;SDS011;38934;52.690;6.184;2023-08-20T01:54:04;11.73;;;8.20;;
53052;SDS011;38934;52.690;6.184;2023-08-20T01:56:30;10.95;;;7.70;;
53052;SDS011;38934;52.690;6.184;2023-08-20T01:58:55;11.07;;;8.02;;
53052;SDS011;38934;52.690;6.184;2023-08-20T02:01:21;11.30;;;7.72;;
53052;SDS011;38934;52.690;6.184;2023-08-20T02:03:47;11.25;;;7.43;;
53052;SDS011;38934;52.690;6.184;2023-08-20T02:06:12;8.73;;;7.22;;
53052;SDS011;38934;52.690;6.184;2023-08-20T02:08:38;12.00;;;7.72;;
53052;SDS011;38934;52.690;6.184;2023-08-20T02:11:04;13.90;;;8.10;;
53052;SDS011;38934;52.690;6.184;2023-08-20T02:13:32;9.93;;;7.53;;
53052;SDS011;38934;52.690;6.184;2023-08-20T02:16:02;11.80;;;7.95;;
53052;SDS011;38934;52.690;6.184;2023-08-20T02:18:29;14.07;;;9.30;;
53052;SDS011;38934;52.690;6.184;2023-08-20T02:20:56;11.00;;;7.25;;
53052;SDS011;38934;52.690;6.184;2023-08-20T02:23:22;12.40;;;8.10;;
53052;SDS011;38934;52.690;6.184;2023-08-20T02:25:48;12.13;;;7.88;;
53052;SDS011;38934;52.690;6.184;2023-08-20T02:28:13;11.77;;;7.20;;
53052;SDS011;38934;52.690;6.184;2023-08-20T02:30:43;11.77;;;8.43;;
53052;SDS011;38934;52.690;6.184;2023-08-20T02:33:10;10.07;;;7.85;;
53052;SDS011;38934;52.690;6.184;2023-08-20T02:35:36;15.77;;;7.90;;
53052;SDS011;38934;52.690;6.184;2023-08-20T02:38:03;10.73;;;7.70;;
53052;SDS011;38934;52.690;6.184;2023-08-20T02:40:29;13.25;;;7.80;;
53052;SDS011;38934;52.690;6.184;2023-08-20T02:42:54;10.57;;;8.40;;
53052;SDS011;38934;52.690;6.184;2023-08-20T02:45:20;11.52;;;7.13;;
53052;SDS011;38934;52.690;6.184;2023-08-20T02:47:45;11.68;;;8.75;;
53052;SDS011;38934;52.690;6.184;2023-08-20T02:50:11;11.00;;;8.10;;
53052;SDS011;38934;52.690;6.184;2023-08-20T02:52:37;14.23;;;9.05;;
53052;SDS011;38934;52.690;6.184;2023-08-20T02:55:03;16.70;;;9.50;;
53052;SDS011;38934;52.690;6.184;2023-08-20T02:57:31;12.38;;;7.90;;
53052;SDS011;38934;52.690;6.184;2023-08-20T02:59:57;11.20;;;7.32;;
53052;SDS011;38934;52.690;6.184;2023-08-20T03:02:22;11.90;;;7.82;;
53052;SDS011;38934;52.690;6.184;2023-08-20T03:04:48;11.25;;;7.10;;
53052;SDS011;38934;52.690;6.184;2023-08-20T03:07:14;12.15;;;8.30;;
53052;SDS011;38934;52.690;6.184;2023-08-20T03:09:39;10.00;;;7.68;;
53052;SDS011;38934;52.690;6.184;2023-08-20T03:12:05;12.27;;;7.53;;
53052;SDS011;38934;52.690;6.184;2023-08-20T03:14:31;13.02;;;8.40;;
53052;SDS011;38934;52.690;6.184;2023-08-20T03:16:57;10.55;;;8.40;;
53052;SDS011;38934;52.690;6.184;2023-08-20T03:19:22;9.85;;;8.07;;
53052;SDS011;38934;52.690;6.184;2023-08-20T03:21:48;11.50;;;8.32;;
53052;SDS011;38934;52.690;6.184;2023-08-20T03:24:13;10.45;;;8.13;;
53052;SDS011;38934;52.690;6.184;2023-08-20T03:26:39;10.93;;;7.72;;
53052;SDS011;38934;52.690;6.184;2023-08-20T03:29:05;10.80;;;6.90;;
53052;SDS011;38934;52.690;6.184;2023-08-20T03:31:31;12.52;;;7.65;;
53052;SDS011;38934;52.690;6.184;2023-08-20T03:33:57;9.13;;;7.65;;
53052;SDS011;38934;52.690;6.184;2023-08-20T03:36:22;12.10;;;8.77;;
53052;SDS011;38934;52.690;6.184;2023-08-20T03:38:48;12.05;;;7.93;;
53052;SDS011;38934;52.690;6.184;2023-08-20T03:41:14;11.65;;;7.88;;
53052;SDS011;38934;52.690;6.184;2023-08-20T03:43:39;13.13;;;8.48;;
53052;SDS011;38934;52.690;6.184;2023-08-20T03:46:05;8.70;;;7.47;;
53052;SDS011;38934;52.690;6.184;2023-08-20T03:48:30;16.50;;;7.93;;
53052;SDS011;38934;52.690;6.184;2023-08-20T03:50:56;11.13;;;8.57;;
53052;SDS011;38934;52.690;6.184;2023-08-20T03:53:22;11.32;;;8.52;;
53052;SDS011;38934;52.690;6.184;2023-08-20T03:55:48;12.20;;;7.72;;
53052;SDS011;38934;52.690;6.184;2023-08-20T03:58:14;14.80;;;8.60;;
53052;SDS011;38934;52.690;6.184;2023-08-20T04:00:40;13.32;;;9.02;;
53052;SDS011;38934;52.690;6.184;2023-08-20T04:03:06;12.63;;;10.05;;
53052;SDS011;38934;52.690;6.184;2023-08-20T04:05:35;14.13;;;9.55;;
53052;SDS011;38934;52.690;6.184;2023-08-20T04:08:04;12.40;;;9.52;;
53052;SDS011;38934;52.690;6.184;2023-08-20T04:10:31;12.73;;;9.07;;
53052;SDS011;38934;52.690;6.184;2023-08-20T04:12:57;19.92;;;11.10;;
53052;SDS011;38934;52.690;6.184;2023-08-20T04:15:23;14.88;;;10.38;;
53052;SDS011;38934;52.690;6.184;2023-08-20T04:17:49;10.70;;;8.73;;
53052;SDS011;38934;52.690;6.184;2023-08-20T04:20:14;18.30;;;12.45;;
53052;SDS011;38934;52.690;6.184;2023-08-20T04:22:40;18.17;;;12.55;;
53052;SDS011;38934;52.690;6.184;2023-08-20T04:25:07;14.55;;;10.52;;
53052;SDS011;38934;52.690;6.184;2023-08-20T04:27:33;13.10;;;10.60;;
53052;SDS011;38934;52.690;6.184;2023-08-20T04:29:59;17.35;;;11.20;;
53052;SDS011;38934;52.690;6.184;2023-08-20T04:32:24;12.23;;;9.52;;
53052;SDS011;38934;52.690;6.184;2023-08-20T04:34:50;16.17;;;9.70;;
53052;SDS011;38934;52.690;6.184;2023-08-20T04:37:18;16.02;;;10.23;;
53052;SDS011;38934;52.690;6.184;2023-08-20T04:39:44;14.15;;;9.85;;
53052;SDS011;38934;52.690;6.184;2023-08-20T04:42:10;15.23;;;10.68;;
53052;SDS011;38934;52.690;6.184;2023-08-20T04:44:35;13.32;;;9.70;;
53052;SDS011;38934;52.690;6.184;2023-08-20T04:47:01;11.48;;;9.18;;
53052;SDS011;38934;52.690;6.184;2023-08-20T04:49:26;13.52;;;9.68;;
53052;SDS011;38934;52.690;6.184;2023-08-20T04:51:53;13.32;;;8.95;;
53052;SDS011;38934;52.690;6.184;2023-08-20T04:54:19;8.60;;;7.63;;
53052;SDS011;38934;52.690;6.184;2023-08-20T04:56:45;11.35;;;8.60;;
53052;SDS011;38934;52.690;6.184;2023-08-20T04:59:10;11.02;;;8.13;;
53052;SDS011;38934;52.690;6.184;2023-08-20T05:01:37;12.45;;;8.70;;
53052;SDS011;38934;52.690;6.184;2023-08-20T05:04:03;10.85;;;8.23;;
53052;SDS011;38934;52.690;6.184;2023-08-20T05:06:29;11.18;;;9.27;;
53052;SDS011;38934;52.690;6.184;2023-08-20T05:08:54;12.30;;;9.20;;
53052;SDS011;38934;52.690;6.184;2023-08-20T05:11:20;12.07;;;8.05;;
53052;SDS011;38934;52.690;6.184;2023-08-20T05:13:47;10.85;;;8.27;;
53052;SDS011;38934;52.690;6.184;2023-08-20T05:16:14;12.55;;;8.48;;
53052;SDS011;38934;52.690;6.184;2023-08-20T05:18:40;11.25;;;8.35;;
53052;SDS011;38934;52.690;6.184;2023-08-20T05:21:05;11.23;;;8.30;;
53052;SDS011;38934;52.690;6.184;2023-08-20T05:23:31;14.25;;;9.25;;
53052;SDS011;38934;52.690;6.184;2023-08-20T05:25:57;10.80;;;8.48;;
53052;SDS011;38934;52.690;6.184;2023-08-20T05:28:22;11.38;;;9.20;;
53052;SDS011;38934;52.690;6.184;2023-08-20T05:30:54;11.50;;;7.55;;
53052;SDS011;38934;52.690;6.184;2023-08-20T05:33:21;15.77;;;9.27;;
53052;SDS011;38934;52.690;6.184;2023-08-20T05:35:47;12.25;;;7.95;;
53052;SDS011;38934;52.690;6.184;2023-08-20T05:38:13;14.98;;;8.27;;
53052;SDS011;38934;52.690;6.184;2023-08-20T05:40:39;13.68;;;7.80;;
53052;SDS011;38934;52.690;6.184;2023-08-20T05:43:04;12.45;;;8.23;;
53052;SDS011;38934;52.690;6.184;2023-08-20T05:45:30;11.60;;;8.60;;
53052;SDS011;38934;52.690;6.184;2023-08-20T05:47:55;13.80;;;7.82;;
53052;SDS011;38934;52.690;6.184;2023-08-20T05:50:21;14.77;;;8.98;;
53052;SDS011;38934;52.690;6.184;2023-08-20T05:52:47;11.77;;;8.13;;
53052;SDS011;38934;52.690;6.184;2023-08-20T05:55:13;11.23;;;7.93;;
53052;SDS011;38934;52.690;6.184;2023-08-20T05:57:39;13.25;;;7.90;;
53052;SDS011;38934;52.690;6.184;2023-08-20T06:00:06;10.90;;;7.57;;
53052;SDS011;38934;52.690;6.184;2023-08-20T06:02:32;14.85;;;8.68;;
53052;SDS011;38934;52.690;6.184;2023-08-20T06:04:58;12.80;;;8.63;;
53052;SDS011;38934;52.690;6.184;2023-08-20T06:07:23;13.13;;;9.15;;
53052;SDS011;38934;52.690;6.184;2023-08-20T06:09:49;15.15;;;9.90;;
53052;SDS011;38934;52.690;6.184;2023-08-20T06:12:15;14.32;;;9.07;;
53052;SDS011;38934;52.690;6.184;2023-08-20T06:14:41;15.52;;;9.48;;
53052;SDS011;38934;52.690;6.184;2023-08-20T06:17:07;17.80;;;9.43;;
53052;SDS011;38934;52.690;6.184;2023-08-20T06:19:33;15.82;;;9.20;;
53052;SDS011;38934;52.690;6.184;2023-08-20T06:21:59;17.08;;;9.68;;
53052;SDS011;38934;52.690;6.184;2023-08-20T06:24:25;15.63;;;8.50;;
53052;SDS011;38934;52.690;6.184;2023-08-20T06:26:51;17.10;;;8.77;;
53052;SDS011;38934;52.690;6.184;2023-08-20T06:29:17;16.13;;;9.82;;
53052;SDS011;38934;52.690;6.184;2023-08-20T06:31:43;13.13;;;9.35;;
53052;SDS011;38934;52.690;6.184;2023-08-20T06:34:09;15.77;;;8.90;;
53052;SDS011;38934;52.690;6.184;2023-08-20T06:36:35;15.63;;;8.73;;
53052;SDS011;38934;52.690;6.184;2023-08-20T06:39:01;14.23;;;8.30;;
53052;SDS011;38934;52.690;6.184;2023-08-20T06:41:26;14.25;;;8.70;;
53052;SDS011;38934;52.690;6.184;2023-08-20T06:43:52;14.73;;;8.85;;
53052;SDS011;38934;52.690;6.184;2023-08-20T06:46:18;14.30;;;8.70;;
53052;SDS011;38934;52.690;6.184;2023-08-20T06:48:46;13.63;;;8.60;;
53052;SDS011;38934;52.690;6.184;2023-08-20T06:51:12;14.40;;;8.23;;
53052;SDS011;38934;52.690;6.184;2023-08-20T06:53:41;15.77;;;8.38;;
53052;SDS011;38934;52.690;6.184;2023-08-20T06:56:07;15.95;;;8.13;;
53052;SDS011;38934;52.690;6.184;2023-08-20T06:58:34;16.40;;;8.75;;
53052;SDS011;38934;52.690;6.184;2023-08-20T07:01:04;19.77;;;8.93;;
53052;SDS011;38934;52.690;6.184;2023-08-20T07:03:33;13.55;;;7.20;;
53052;SDS011;38934;52.690;6.184;2023-08-20T07:06:06;17.70;;;8.52;;
53052;SDS011;38934;52.690;6.184;2023-08-20T07:08:34;16.70;;;8.40;;
53052;SDS011;38934;52.690;6.184;2023-08-20T07:11:00;19.75;;;8.10;;
53052;SDS011;38934;52.690;6.184;2023-08-20T07:13:25;14.63;;;7.93;;
53052;SDS011;38934;52.690;6.184;2023-08-20T07:15:51;16.80;;;8.27;;
53052;SDS011;38934;52.690;6.184;2023-08-20T07:18:17;15.57;;;7.57;;
53052;SDS011;38934;52.690;6.184;2023-08-20T07:20:43;15.35;;;8.15;;
53052;SDS011;38934;52.690;6.184;2023-08-20T07:23:09;16.45;;;8.05;;
53052;SDS011;38934;52.690;6.184;2023-08-20T07:25:39;14.60;;;7.80;;
53052;SDS011;38934;52.690;6.184;2023-08-20T07:28:05;22.10;;;8.73;;
53052;SDS011;38934;52.690;6.184;2023-08-20T07:30:32;15.20;;;7.95;;
53052;SDS011;38934;52.690;6.184;2023-08-20T07:33:00;16.00;;;8.10;;
53052;SDS011;38934;52.690;6.184;2023-08-20T07:35:27;18.23;;;7.78;;
53052;SDS011;38934;52.690;6.184;2023-08-20T07:37:53;12.07;;;8.02;;
53052;SDS011;38934;52.690;6.184;2023-08-20T07:40:18;15.88;;;7.45;;
53052;SDS011;38934;52.690;6.184;2023-08-20T07:42:44;23.48;;;8.45;;
53052;SDS011;38934;52.690;6.184;2023-08-20T07:45:10;15.27;;;8.02;;
53052;SDS011;38934;52.690;6.184;2023-08-20T07:47:38;15.35;;;8.38;;
53052;SDS011;38934;52.690;6.184;2023-08-20T07:50:04;15.00;;;8.23;;
53052;SDS011;38934;52.690;6.184;2023-08-20T07:52:31;16.83;;;8.18;;
53052;SDS011;38934;52.690;6.184;2023-08-20T07:54:57;14.57;;;7.57;;
53052;SDS011;38934;52.690;6.184;2023-08-20T07:57:23;13.70;;;7.95;;
53052;SDS011;38934;52.690;6.184;2023-08-20T07:59:51;16.58;;;8.73;;
53052;SDS011;38934;52.690;6.184;2023-08-20T08:02:18;16.02;;;8.10;;
53052;SDS011;38934;52.690;6.184;2023-08-20T08:04:44;15.85;;;7.70;;
53052;SDS011;38934;52.690;6.184;2023-08-20T08:07:10;15.93;;;7.90;;
53052;SDS011;38934;52.690;6.184;2023-08-20T08:09:36;12.98;;;7.13;;
53052;SDS011;38934;52.690;6.184;2023-08-20T08:12:02;20.67;;;8.40;;
53052;SDS011;38934;52.690;6.184;2023-08-20T08:14:28;14.45;;;6.35;;
53052;SDS011;38934;52.690;6.184;2023-08-20T08:16:54;14.93;;;6.30;;
53052;SDS011;38934;52.690;6.184;2023-08-20T08:19:19;15.38;;;6.43;;
53052;SDS011;38934;52.690;6.184;2023-08-20T08:21:45;12.00;;;5.40;;
53052;SDS011;38934;52.690;6.184;2023-08-20T08:24:12;11.95;;;5.30;;
53052;SDS011;38934;52.690;6.184;2023-08-20T08:26:38;18.70;;;5.53;;
53052;SDS011;38934;52.690;6.184;2023-08-20T08:37:56;14.57;;;6.05;;
53052;SDS011;38934;52.690;6.184;2023-08-20T08:40:23;9.35;;;4.25;;
53052;SDS011;38934;52.690;6.184;2023-08-20T08:42:53;11.43;;;4.45;;
53052;SDS011;38934;52.690;6.184;2023-08-20T08:45:19;11.02;;;4.95;;
53052;SDS011;38934;52.690;6.184;2023-08-20T08:47:46;12.43;;;4.53;;
53052;SDS011;38934;52.690;6.184;2023-08-20T08:50:12;8.63;;;3.83;;
53052;SDS011;38934;52.690;6.184;2023-08-20T08:52:39;10.18;;;3.30;;
53052;SDS011;38934;52.690;6.184;2023-08-20T08:55:06;11.32;;;3.80;;
53052;SDS011;38934;52.690;6.184;2023-08-20T08:57:34;9.98;;;3.20;;
53052;SDS011;38934;52.690;6.184;2023-08-20T09:00:01;7.68;;;2.63;;
53052;SDS011;38934;52.690;6.184;2023-08-20T09:02:28;9.60;;;2.72;;
53052;SDS011;38934;52.690;6.184;2023-08-20T09:04:53;8.30;;;2.90;;
53052;SDS011;38934;52.690;6.184;2023-08-20T09:07:19;9.75;;;3.15;;
53052;SDS011;38934;52.690;6.184;2023-08-20T09:09:45;6.60;;;3.00;;
53052;SDS011;38934;52.690;6.184;2023-08-20T09:12:18;10.20;;;3.20;;
53052;SDS011;38934;52.690;6.184;2023-08-20T09:14:45;10.65;;;3.47;;
53052;SDS011;38934;52.690;6.184;2023-08-20T09:17:13;9.77;;;3.08;;
53052;SDS011;38934;52.690;6.184;2023-08-20T09:19:39;12.60;;;4.70;;
53052;SDS011;38934;52.690;6.184;2023-08-20T09:22:04;9.85;;;2.78;;
53052;SDS011;38934;52.690;6.184;2023-08-20T09:27:04;8.25;;;2.30;;
53052;SDS011;38934;52.690;6.184;2023-08-20T09:30:13;5.70;;;2.15;;
53052;SDS011;38934;52.690;6.184;2023-08-20T09:32:21;6.50;;;2.25;;
53052;SDS011;38934;52.690;6.184;2023-08-20T09:34:51;10.88;;;2.65;;
53052;SDS011;38934;52.690;6.184;2023-08-20T09:37:24;11.93;;;2.65;;
53052;SDS011;38934;52.690;6.184;2023-08-20T09:39:58;5.40;;;2.22;;
53052;SDS011;38934;52.690;6.184;2023-08-20T09:42:24;9.02;;;2.38;;
53052;SDS011;38934;52.690;6.184;2023-08-20T09:44:55;8.25;;;1.90;;
53052;SDS011;38934;52.690;6.184;2023-08-20T09:47:27;5.23;;;1.70;;
53052;SDS011;38934;52.690;6.184;2023-08-20T09:49:56;6.35;;;1.90;;
53052;SDS011;38934;52.690;6.184;2023-08-20T09:53:09;5.35;;;1.55;;
53052;SDS011;38934;52.690;6.184;2023-08-20T09:55:34;7.15;;;2.22;;
53052;SDS011;38934;52.690;6.184;2023-08-20T09:58:03;5.55;;;1.77;;
53052;SDS011;38934;52.690;6.184;2023-08-20T10:00:30;5.47;;;1.75;;
53052;SDS011;38934;52.690;6.184;2023-08-20T10:02:57;5.25;;;1.60;;
53052;SDS011;38934;52.690;6.184;2023-08-20T10:05:23;7.13;;;1.70;;
53052;SDS011;38934;52.690;6.184;2023-08-20T10:07:50;6.60;;;1.67;;
53052;SDS011;38934;52.690;6.184;2023-08-20T10:10:17;4.50;;;1.90;;
53052;SDS011;38934;52.690;6.184;2023-08-20T10:12:43;4.75;;;1.60;;
53052;SDS011;38934;52.690;6.184;2023-08-20T10:15:10;8.68;;;1.95;;
53052;SDS011;38934;52.690;6.184;2023-08-20T10:17:38;11.00;;;2.25;;
53052;SDS011;38934;52.690;6.184;2023-08-20T10:20:06;8.10;;;2.10;;
53052;SDS011;38934;52.690;6.184;2023-08-20T10:22:33;7.15;;;1.77;;
53052;SDS011;38934;52.690;6.184;2023-08-20T10:25:06;5.88;;;1.80;;
53052;SDS011;38934;52.690;6.184;2023-08-20T10:27:34;8.52;;;2.15;;
53052;SDS011;38934;52.690;6.184;2023-08-20T10:30:01;5.07;;;1.50;;
53052;SDS011;38934;52.690;6.184;2023-08-20T10:32:44;6.25;;;1.77;;
53052;SDS011;38934;52.690;6.184;2023-08-20T10:35:17;9.02;;;1.90;;
53052;SDS011;38934;52.690;6.184;2023-08-20T10:43:31;8.27;;;2.35;;
53052;SDS011;38934;52.690;6.184;2023-08-20T10:48:29;4.70;;;1.70;;
53052;SDS011;38934;52.690;6.184;2023-08-20T10:50:56;6.15;;;2.00;;
53052;SDS011;38934;52.690;6.184;2023-08-20T10:53:22;7.30;;;2.10;;
53052;SDS011;38934;52.690;6.184;2023-08-20T10:55:48;7.07;;;2.05;;
53052;SDS011;38934;52.690;6.184;2023-08-20T10:58:14;7.95;;;2.30;;
53052;SDS011;38934;52.690;6.184;2023-08-20T11:00:41;5.55;;;1.88;;
53052;SDS011;38934;52.690;6.184;2023-08-20T11:03:07;8.30;;;1.98;;
53052;SDS011;38934;52.690;6.184;2023-08-20T11:05:34;6.97;;;1.80;;
53052;SDS011;38934;52.690;6.184;2023-08-20T11:08:00;7.57;;;1.85;;
53052;SDS011;38934;52.690;6.184;2023-08-20T11:10:28;9.07;;;2.50;;
53052;SDS011;38934;52.690;6.184;2023-08-20T11:12:54;2.55;;;1.50;;
53052;SDS011;38934;52.690;6.184;2023-08-20T11:15:20;5.32;;;1.88;;
53052;SDS011;38934;52.690;6.184;2023-08-20T11:17:46;4.00;;;1.17;;
53052;SDS011;38934;52.690;6.184;2023-08-20T11:20:15;6.18;;;1.70;;
53052;SDS011;38934;52.690;6.184;2023-08-20T11:22:41;8.65;;;1.88;;
53052;SDS011;38934;52.690;6.184;2023-08-20T11:25:10;6.47;;;1.67;;
53052;SDS011;38934;52.690;6.184;2023-08-20T11:27:41;8.13;;;1.80;;
53052;SDS011;38934;52.690;6.184;2023-08-20T11:30:08;6.45;;;1.50;;
53052;SDS011;38934;52.690;6.184;2023-08-20T11:32:37;7.60;;;1.80;;
53052;SDS011;38934;52.690;6.184;2023-08-20T11:35:03;5.70;;;1.63;;
53052;SDS011;38934;52.690;6.184;2023-08-20T11:37:30;7.57;;;2.30;;
53052;SDS011;38934;52.690;6.184;2023-08-20T11:39:56;6.15;;;1.85;;
53052;SDS011;38934;52.690;6.184;2023-08-20T11:42:22;9.77;;;2.00;;
53052;SDS011;38934;52.690;6.184;2023-08-20T11:44:48;5.53;;;1.70;;
53052;SDS011;38934;52.690;6.184;2023-08-20T11:47:17;6.88;;;1.83;;
53052;SDS011;38934;52.690;6.184;2023-08-20T11:49:44;8.20;;;2.05;;
53052;SDS011;38934;52.690;6.184;2023-08-20T11:52:10;5.82;;;2.00;;
53052;SDS011;38934;52.690;6.184;2023-08-20T11:54:38;7.28;;;2.05;;
53052;SDS011;38934;52.690;6.184;2023-08-20T11:57:04;6.78;;;1.73;;
53052;SDS011;38934;52.690;6.184;2023-08-20T11:59:31;7.43;;;1.73;;
53052;SDS011;38934;52.690;6.184;2023-08-20T12:01:58;6.00;;;1.77;;
53052;SDS011;38934;52.690;6.184;2023-08-20T12:04:25;5.35;;;1.75;;
53052;SDS011;38934;52.690;6.184;2023-08-20T12:07:07;4.28;;;1.50;;
53052;SDS011;38934;52.690;6.184;2023-08-20T12:09:34;6.35;;;1.60;;
53052;SDS011;38934;52.690;6.184;2023-08-20T12:12:00;5.40;;;1.60;;
53052;SDS011;38934;52.690;6.184;2023-08-20T12:14:27;7.47;;;1.77;;
53052;SDS011;38934;52.690;6.184;2023-08-20T12:16:55;3.60;;;1.20;;
53052;SDS011;38934;52.690;6.184;2023-08-20T12:19:28;2.15;;;1.15;;
53052;SDS011;38934;52.690;6.184;2023-08-20T12:22:01;3.83;;;1.25;;
53052;SDS011;38934;52.690;6.184;2023-08-20T12:24:28;3.42;;;1.55;;
53052;SDS011;38934;52.690;6.184;2023-08-20T12:26:54;4.85;;;1.40;;
53052;SDS011;38934;52.690;6.184;2023-08-20T12:29:20;4.38;;;1.30;;
53052;SDS011;38934;52.690;6.184;2023-08-20T12:31:46;2.92;;;1.10;;
53052;SDS011;38934;52.690;6.184;2023-08-20T12:34:11;3.55;;;1.20;;
53052;SDS011;38934;52.690;6.184;2023-08-20T12:36:37;6.85;;;1.50;;
53052;SDS011;38934;52.690;6.184;2023-08-20T12:39:03;5.28;;;1.90;;
53052;SDS011;38934;52.690;6.184;2023-08-20T12:41:30;5.43;;;1.70;;
53052;SDS011;38934;52.690;6.184;2023-08-20T12:43:56;4.45;;;1.58;;
53052;SDS011;38934;52.690;6.184;2023-08-20T12:46:22;3.03;;;1.30;;
53052;SDS011;38934;52.690;6.184;2023-08-20T12:48:47;2.58;;;1.05;;
53052;SDS011;38934;52.690;6.184;2023-08-20T12:51:13;5.22;;;1.40;;
53052;SDS011;38934;52.690;6.184;2023-08-20T12:53:41;3.38;;;1.23;;
53052;SDS011;38934;52.690;6.184;2023-08-20T12:56:06;5.47;;;1.60;;
53052;SDS011;38934;52.690;6.184;2023-08-20T12:58:32;5.70;;;1.35;;
53052;SDS011;38934;52.690;6.184;2023-08-20T13:00:57;3.45;;;1.10;;
53052;SDS011;38934;52.690;6.184;2023-08-20T13:03:23;4.13;;;1.10;;
53052;SDS011;38934;52.690;6.184;2023-08-20T13:05:49;3.25;;;1.27;;
53052;SDS011;38934;52.690;6.184;2023-08-20T13:08:15;5.78;;;1.30;;
53052;SDS011;38934;52.690;6.184;2023-08-20T13:10:41;3.83;;;1.38;;
53052;SDS011;38934;52.690;6.184;2023-08-20T13:13:13;4.50;;;1.25;;
53052;SDS011;38934;52.690;6.184;2023-08-20T13:15:40;3.40;;;1.20;;
53052;SDS011;38934;52.690;6.184;2023-08-20T13:18:06;3.15;;;1.10;;
53052;SDS011;38934;52.690;6.184;2023-08-20T13:20:32;4.28;;;1.20;;
53052;SDS011;38934;52.690;6.184;2023-08-20T13:22:58;4.00;;;1.20;;
53052;SDS011;38934;52.690;6.184;2023-08-20T13:25:24;2.75;;;0.98;;
53052;SDS011;38934;52.690;6.184;2023-08-20T13:27:49;3.10;;;1.10;;
53052;SDS011;38934;52.690;6.184;2023-08-20T13:30:15;3.50;;;1.00;;
53052;SDS011;38934;52.690;6.184;2023-08-20T13:32:41;1.55;;;0.80;;
53052;SDS011;38934;52.690;6.184;2023-08-20T13:35:07;3.63;;;0.90;;
53052;SDS011;38934;52.690;6.184;2023-08-20T13:37:33;1.63;;;0.80;;
53052;SDS011;38934;52.690;6.184;2023-08-20T13:39:58;3.70;;;1.05;;
53052;SDS011;38934;52.690;6.184;2023-08-20T13:42:24;5.13;;;1.40;;
53052;SDS011;38934;52.690;6.184;2023-08-20T13:44:50;2.42;;;1.10;;
53052;SDS011;38934;52.690;6.184;2023-08-20T13:47:16;3.30;;;1.00;;
53052;SDS011;38934;52.690;6.184;2023-08-20T13:49:41;3.08;;;1.08;;
53052;SDS011;38934;52.690;6.184;2023-08-20T13:52:07;2.50;;;1.00;;
53052;SDS011;38934;52.690;6.184;2023-08-20T13:54:34;3.42;;;1.00;;
53052;SDS011;38934;52.690;6.184;2023-08-20T13:57:01;3.58;;;1.10;;
53052;SDS011;38934;52.690;6.184;2023-08-20T13:59:28;2.15;;;1.15;;
53052;SDS011;38934;52.690;6.184;2023-08-20T14:01:54;2.50;;;1.02;;
53052;SDS011;38934;52.690;6.184;2023-08-20T14:04:20;5.22;;;1.20;;
53052;SDS011;38934;52.690;6.184;2023-08-20T14:06:45;3.30;;;1.08;;
53052;SDS011;38934;52.690;6.184;2023-08-20T14:09:11;2.65;;;1.27;;
53052;SDS011;38934;52.690;6.184;2023-08-20T14:11:37;2.05;;;0.90;;
53052;SDS011;38934;52.690;6.184;2023-08-20T14:14:02;4.05;;;1.10;;
53052;SDS011;38934;52.690;6.184;2023-08-20T14:16:28;4.32;;;1.15;;
53052;SDS011;38934;52.690;6.184;2023-08-20T14:18:54;2.85;;;0.90;;
53052;SDS011;38934;52.690;6.184;2023-08-20T14:21:19;4.55;;;1.23;;
53052;SDS011;38934;52.690;6.184;2023-08-20T14:23:45;2.40;;;1.17;;
53052;SDS011;38934;52.690;6.184;2023-08-20T14:26:11;3.60;;;1.40;;
53052;SDS011;38934;52.690;6.184;2023-08-20T14:28:36;4.85;;;1.35;;
53052;SDS011;38934;52.690;6.184;2023-08-20T14:31:02;2.55;;;1.13;;
53052;SDS011;38934;52.690;6.184;2023-08-20T14:33:31;4.28;;;1.45;;
53052;SDS011;38934;52.690;6.184;2023-08-20T14:35:57;5.43;;;1.40;;
53052;SDS011;38934;52.690;6.184;2023-08-20T14:38:23;4.30;;;1.83;;
53052;SDS011;38934;52.690;6.184;2023-08-20T14:40:49;4.75;;;1.20;;
53052;SDS011;38934;52.690;6.184;2023-08-20T14:43:14;5.28;;;1.40;;
53052;SDS011;38934;52.690;6.184;2023-08-20T14:45:40;3.53;;;1.33;;
53052;SDS011;38934;52.690;6.184;2023-08-20T14:48:06;4.93;;;1.40;;
53052;SDS011;38934;52.690;6.184;2023-08-20T14:50:31;4.90;;;1.40;;
53052;SDS011;38934;52.690;6.184;2023-08-20T14:52:57;5.03;;;1.45;;
53052;SDS011;38934;52.690;6.184;2023-08-20T14:55:24;5.45;;;1.50;;
53052;SDS011;38934;52.690;6.184;2023-08-20T14:57:49;3.92;;;1.25;;
53052;SDS011;38934;52.690;6.184;2023-08-20T15:00:15;4.85;;;1.70;;
53052;SDS011;38934;52.690;6.184;2023-08-20T15:02:42;4.82;;;1.30;;
53052;SDS011;38934;52.690;6.184;2023-08-20T15:05:09;4.65;;;1.38;;